Time;durP1;ratioP1;P1;durP2;ratioP2;P2;SDS_P1;SDS_P2;PMS_P1;PMS_P2;Temp;Humidity;BMP_temperature;BMP_pressure;BME280_temperature;BME280_humidity;BME280_pressure;Samples;Min_cycle;Max_cycle;Signal;HPM_P1;HPM_P2
2021/09/22 00:00:18;;;;;;;0.80;0.60;;;12.50;99.90;;;;;;5032148;28;20544;-76
2021/09/22 00:02:43;;;;;;;0.70;0.60;;;12.40;99.90;;;;;;5035139;28;20461;-77
2021/09/22 00:05:10;;;;;;;0.70;0.50;;;12.40;99.90;;;;;;5025199;28;20427;-77
2021/09/22 00:07:36;;;;;;;0.80;0.60;;;12.30;99.90;;;;;;5021510;28;20514;-77
2021/09/22 00:10:01;;;;;;;0.80;0.70;;;12.30;99.90;;;;;;5022489;28;20486;-76
2021/09/22 00:12:27;;;;;;;1.23;0.70;;;12.20;99.90;;;;;;5023814;28;20250;-75
2021/09/22 00:14:53;;;;;;;0.70;0.50;;;12.30;99.90;;;;;;5028903;28;20225;-77
2021/09/22 00:17:18;;;;;;;20.40;2.33;;;12.30;99.90;;;;;;5026865;28;20175;-77
2021/09/22 00:19:44;;;;;;;0.70;0.60;;;12.30;99.90;;;;;;5032005;28;20203;-75
2021/09/22 00:22:10;;;;;;;1.13;0.70;;;12.30;99.90;;;;;;5038840;28;20191;-76
2021/09/22 00:24:35;;;;;;;0.70;0.50;;;12.30;99.90;;;;;;5033945;28;20203;-76
2021/09/22 00:27:01;;;;;;;1.77;0.80;;;12.30;99.90;;;;;;5045272;28;20720;-76
2021/09/22 00:29:27;;;;;;;0.80;0.60;;;12.20;99.90;;;;;;5029798;28;20254;-75
2021/09/22 00:31:52;;;;;;;0.90;0.80;;;12.20;99.90;;;;;;5040635;28;20183;-75
2021/09/22 00:34:18;;;;;;;0.70;0.50;;;12.10;99.90;;;;;;5035533;28;20426;-75
2021/09/22 00:36:46;;;;;;;0.77;0.67;;;12.20;99.90;;;;;;5032739;28;20183;-75
2021/09/22 00:39:11;;;;;;;0.70;0.50;;;12.20;99.90;;;;;;5038809;28;20483;-77
2021/09/22 00:41:37;;;;;;;0.80;0.70;;;12.20;99.90;;;;;;5027844;28;20434;-76
2021/09/22 00:44:03;;;;;;;0.90;0.67;;;12.10;99.90;;;;;;5038618;28;20208;-76
2021/09/22 00:46:28;;;;;;;1.00;0.90;;;12.10;99.90;;;;;;5035826;28;20225;-76
2021/09/22 00:48:54;;;;;;;0.70;0.50;;;12.10;99.90;;;;;;5038254;28;20256;-75
2021/09/22 00:51:20;;;;;;;0.80;0.60;;;12.10;99.90;;;;;;5036507;28;20203;-76
2021/09/22 00:53:45;;;;;;;0.80;0.60;;;12.00;99.90;;;;;;5036128;28;20213;-76
2021/09/22 00:56:11;;;;;;;0.70;0.50;;;12.00;99.90;;;;;;5029157;28;20518;-76
2021/09/22 00:58:37;;;;;;;0.80;0.60;;;12.00;99.90;;;;;;5032198;28;20742;-75
2021/09/22 01:01:03;;;;;;;1.73;0.80;;;12.00;99.90;;;;;;5035538;28;20274;-76
2021/09/22 01:03:29;;;;;;;0.90;0.60;;;11.90;99.90;;;;;;5021814;28;20490;-76
2021/09/22 01:05:57;;;;;;;1.07;0.97;;;11.90;99.90;;;;;;5021118;28;20411;-76
2021/09/22 01:08:23;;;;;;;0.70;0.50;;;11.80;99.90;;;;;;5040013;28;20410;-77
2021/09/22 01:10:49;;;;;;;1.23;1.03;;;11.80;99.90;;;;;;5026778;28;20439;-77
2021/09/22 01:13:16;;;;;;;3.00;0.80;;;11.90;99.90;;;;;;5038118;28;20834;-76
2021/09/22 01:15:43;;;;;;;0.80;0.60;;;11.90;99.90;;;;;;5031061;28;20450;-75
2021/09/22 01:18:16;;;;;;;0.80;0.70;;;11.80;99.90;;;;;;5027687;28;20529;-76
2021/09/22 01:20:43;;;;;;;0.80;0.77;;;11.80;99.90;;;;;;5028743;28;20944;-75
2021/09/22 01:23:09;;;;;;;0.70;0.50;;;11.80;99.90;;;;;;5015200;28;20820;-75
2021/09/22 01:25:37;;;;;;;0.70;0.60;;;11.90;99.90;;;;;;5014830;28;20419;-75
2021/09/22 01:28:03;;;;;;;4.53;1.17;;;11.90;99.90;;;;;;5034589;28;20426;-75
2021/09/22 01:30:29;;;;;;;0.70;0.50;;;11.90;99.90;;;;;;5034877;28;20461;-75
2021/09/22 01:33:01;;;;;;;0.73;0.57;;;11.90;99.90;;;;;;5025687;28;20465;-75
2021/09/22 01:35:32;;;;;;;0.80;0.60;;;11.90;99.90;;;;;;5025121;28;20426;-76
2021/09/22 01:37:57;;;;;;;2.47;0.80;;;11.90;99.90;;;;;;5034498;28;20791;-76
2021/09/22 01:40:23;;;;;;;0.70;0.60;;;11.80;99.90;;;;;;5024681;28;20422;-75
2021/09/22 01:42:48;;;;;;;0.70;0.60;;;11.80;99.90;;;;;;5023515;28;20202;-76
2021/09/22 01:45:15;;;;;;;0.70;0.50;;;11.70;99.90;;;;;;5016743;28;20661;-76
2021/09/22 01:47:41;;;;;;;1.30;1.20;;;11.70;99.90;;;;;;5017385;28;20172;-75
2021/09/22 01:50:10;;;;;;;2.50;2.40;;;11.60;99.90;;;;;;5032394;28;20779;-76
2021/09/22 01:52:36;;;;;;;0.87;0.70;;;11.70;99.90;;;;;;5014334;28;20786;-76
2021/09/22 01:55:06;;;;;;;0.70;0.60;;;11.60;99.90;;;;;;5014104;28;20429;-76
2021/09/22 01:57:31;;;;;;;0.93;0.80;;;11.60;99.90;;;;;;5015588;28;20462;-75
2021/09/22 01:59:57;;;;;;;0.70;0.60;;;11.60;99.90;;;;;;5016834;28;20427;-76
2021/09/22 02:02:22;;;;;;;0.70;0.50;;;11.60;99.90;;;;;;5017797;28;20201;-76
2021/09/22 02:04:48;;;;;;;1.47;1.33;;;11.60;99.90;;;;;;5013978;28;20207;-75
2021/09/22 02:07:13;;;;;;;0.70;0.60;;;11.60;99.90;;;;;;5015205;28;20843;-76
2021/09/22 02:09:39;;;;;;;0.87;0.63;;;11.50;99.90;;;;;;5025911;28;20636;-76
2021/09/22 02:12:05;;;;;;;0.90;0.80;;;11.50;99.90;;;;;;5032437;28;20227;-75
2021/09/22 02:14:31;;;;;;;1.77;1.67;;;11.40;99.90;;;;;;5032467;28;20210;-75
2021/09/22 02:16:57;;;;;;;1.00;1.00;;;11.40;99.90;;;;;;5031556;28;20447;-75
2021/09/22 02:19:22;;;;;;;0.80;0.60;;;11.40;99.90;;;;;;5033572;28;20226;-76
2021/09/22 02:21:48;;;;;;;1.00;0.77;;;11.30;99.90;;;;;;5029466;28;20606;-75
2021/09/22 02:24:14;;;;;;;0.80;0.67;;;11.30;99.90;;;;;;5029514;28;20229;-76
2021/09/22 02:26:40;;;;;;;0.80;0.80;;;11.20;99.90;;;;;;5033822;28;20252;-75
2021/09/22 02:29:05;;;;;;;0.90;0.70;;;11.20;99.90;;;;;;5047441;28;20199;-76
2021/09/22 02:31:31;;;;;;;1.13;0.60;;;11.20;99.90;;;;;;5034466;28;20842;-76
2021/09/22 02:33:56;;;;;;;1.00;0.70;;;11.20;99.90;;;;;;5033331;28;20203;-76
2021/09/22 02:36:22;;;;;;;0.70;0.50;;;11.10;99.90;;;;;;5029483;28;20183;-75
2021/09/22 02:38:48;;;;;;;2.50;2.30;;;11.10;99.90;;;;;;5024361;28;20176;-76
2021/09/22 02:41:13;;;;;;;0.70;0.50;;;11.00;99.90;;;;;;5015576;28;20200;-75
2021/09/22 02:43:39;;;;;;;0.73;0.60;;;11.00;99.90;;;;;;5027594;28;20204;-75
2021/09/22 02:46:04;;;;;;;0.70;0.50;;;11.10;99.90;;;;;;5014296;28;20183;-75
2021/09/22 02:48:30;;;;;;;0.80;0.60;;;11.10;99.90;;;;;;5013792;28;20554;-76
2021/09/22 02:50:56;;;;;;;3.63;2.20;;;11.00;99.90;;;;;;5024490;28;20187;-75
2021/09/22 02:53:21;;;;;;;0.70;0.50;;;11.00;99.90;;;;;;5020963;28;20419;-75
2021/09/22 02:55:47;;;;;;;0.80;0.70;;;11.00;99.90;;;;;;5024923;28;20310;-76
2021/09/22 02:58:13;;;;;;;0.70;0.60;;;11.00;99.90;;;;;;5032719;28;20195;-75
2021/09/22 03:00:39;;;;;;;1.27;1.17;;;11.00;99.90;;;;;;5030966;28;20211;-75
2021/09/22 03:03:04;;;;;;;0.70;0.53;;;11.00;99.90;;;;;;5032763;28;20477;-76
2021/09/22 03:05:30;;;;;;;2.50;1.23;;;11.00;99.90;;;;;;5019909;28;20192;-75
2021/09/22 03:07:56;;;;;;;0.80;0.70;;;10.90;99.90;;;;;;5014415;28;20180;-76
2021/09/22 03:10:21;;;;;;;0.70;0.60;;;10.90;99.90;;;;;;5014922;28;20172;-76
2021/09/22 03:12:48;;;;;;;0.70;0.50;;;10.90;99.90;;;;;;5032373;28;20274;-76
2021/09/22 03:15:14;;;;;;;3.17;1.70;;;10.90;99.90;;;;;;5030298;28;20168;-76
2021/09/22 03:17:39;;;;;;;1.17;1.07;;;10.90;99.90;;;;;;5013654;28;20779;-75
2021/09/22 03:20:06;;;;;;;1.17;1.07;;;10.90;99.90;;;;;;5013881;28;20418;-74
2021/09/22 03:22:31;;;;;;;1.10;1.00;;;10.90;99.90;;;;;;5011449;28;20199;-75
2021/09/22 03:24:57;;;;;;;0.80;0.60;;;10.90;99.90;;;;;;5023150;28;20992;-76
2021/09/22 03:27:23;;;;;;;0.70;0.50;;;10.90;99.90;;;;;;5018122;28;20216;-76
2021/09/22 03:29:50;;;;;;;1.50;0.70;;;10.90;99.90;;;;;;5030543;28;20652;-75
2021/09/22 03:32:15;;;;;;;0.80;0.70;;;10.90;99.90;;;;;;5014290;28;20199;-75
2021/09/22 03:34:41;;;;;;;1.20;1.00;;;10.90;99.90;;;;;;5013810;28;20427;-76
2021/09/22 03:37:07;;;;;;;0.90;0.80;;;10.80;99.90;;;;;;5011163;28;20180;-75
2021/09/22 03:39:33;;;;;;;1.43;0.70;;;10.90;99.90;;;;;;5012134;28;20563;-76
2021/09/22 03:41:58;;;;;;;0.80;0.60;;;10.90;99.90;;;;;;5023638;28;20714;-76
2021/09/22 03:44:25;;;;;;;0.87;0.87;;;10.80;99.90;;;;;;5024091;28;20458;-76
2021/09/22 03:46:51;;;;;;;1.13;1.03;;;10.80;99.90;;;;;;5035716;28;20183;-75
2021/09/22 03:49:17;;;;;;;0.80;0.70;;;10.80;99.90;;;;;;5031709;28;20480;-75
2021/09/22 03:51:42;;;;;;;0.83;0.83;;;10.70;99.90;;;;;;5031869;28;20442;-76
2021/09/22 03:54:08;;;;;;;1.13;0.83;;;10.80;99.90;;;;;;5029259;28;20186;-76
2021/09/22 03:56:34;;;;;;;1.77;0.80;;;10.70;99.90;;;;;;5018128;28;20263;-76
2021/09/22 03:59:00;;;;;;;0.83;0.83;;;10.70;99.90;;;;;;5028646;28;20256;-75
2021/09/22 04:01:26;;;;;;;2.73;1.17;;;10.60;99.90;;;;;;5021976;28;20206;-75
2021/09/22 04:03:52;;;;;;;1.03;0.93;;;10.60;99.90;;;;;;5026074;28;20451;-76
2021/09/22 04:06:17;;;;;;;0.80;0.80;;;10.50;99.90;;;;;;5013229;28;20172;-75
2021/09/22 04:08:43;;;;;;;0.80;0.60;;;10.40;99.90;;;;;;5012215;28;20176;-75
2021/09/22 04:11:08;;;;;;;2.40;2.30;;;10.40;99.90;;;;;;5012212;28;20203;-76
2021/09/22 04:13:34;;;;;;;2.33;1.80;;;10.40;99.90;;;;;;5012391;28;20188;-76
2021/09/22 04:15:59;;;;;;;1.83;0.70;;;10.40;99.90;;;;;;5011829;28;20188;-75
2021/09/22 04:18:25;;;;;;;0.80;0.60;;;10.40;99.90;;;;;;5023486;28;20179;-75
2021/09/22 04:20:51;;;;;;;1.70;0.97;;;10.40;99.90;;;;;;5022864;28;20192;-75
2021/09/22 04:23:16;;;;;;;0.70;0.60;;;10.50;99.90;;;;;;5011908;28;20732;-76
2021/09/22 04:25:42;;;;;;;0.90;0.90;;;10.50;99.90;;;;;;5012903;28;20180;-76
2021/09/22 04:28:07;;;;;;;2.23;2.13;;;10.50;99.90;;;;;;5029571;28;20171;-75
2021/09/22 04:30:33;;;;;;;1.23;1.13;;;10.50;99.90;;;;;;5023914;28;20200;-76
2021/09/22 04:32:58;;;;;;;0.70;0.50;;;10.50;99.90;;;;;;5011940;28;20176;-75
2021/09/22 04:35:24;;;;;;;2.33;1.60;;;10.40;99.90;;;;;;5011551;28;20192;-76
2021/09/22 04:37:52;;;;;;;4.20;2.50;;;10.40;99.90;;;;;;5023425;28;20191;-76
2021/09/22 04:40:17;;;;;;;0.70;0.50;;;10.50;99.90;;;;;;5031648;28;20171;-76
2021/09/22 04:42:43;;;;;;;0.70;0.50;;;10.40;99.90;;;;;;5031256;28;20540;-75
2021/09/22 04:45:09;;;;;;;0.70;0.50;;;10.40;99.90;;;;;;5028551;28;20798;-75
2021/09/22 04:47:37;;;;;;;0.70;0.60;;;10.40;99.90;;;;;;5021232;28;20601;-75
2021/09/22 04:50:05;;;;;;;0.70;0.50;;;10.30;99.90;;;;;;5011783;28;20426;-75
2021/09/22 04:52:30;;;;;;;0.70;0.50;;;10.20;99.90;;;;;;5028650;28;20450;-75
2021/09/22 04:54:56;;;;;;;3.10;2.90;;;10.20;99.90;;;;;;5033336;28;20429;-76
2021/09/22 04:57:21;;;;;;;0.70;0.50;;;10.30;99.90;;;;;;5033897;28;20601;-76
2021/09/22 04:59:47;;;;;;;0.80;0.60;;;10.20;99.90;;;;;;5033488;28;20668;-75
2021/09/22 05:02:12;;;;;;;3.07;2.03;;;10.20;99.90;;;;;;5025127;28;20200;-75
2021/09/22 05:04:38;;;;;;;0.90;0.77;;;10.30;99.90;;;;;;5034746;28;20202;-75
2021/09/22 05:07:03;;;;;;;0.70;0.60;;;10.20;99.90;;;;;;5049759;28;20218;-76
2021/09/22 05:09:29;;;;;;;0.70;0.60;;;10.20;99.90;;;;;;5033463;28;20513;-76
2021/09/22 05:11:54;;;;;;;0.80;0.70;;;10.20;99.90;;;;;;5017739;28;20194;-76
2021/09/22 05:14:21;;;;;;;2.43;1.10;;;10.10;99.90;;;;;;5020473;28;20214;-76
2021/09/22 05:16:46;;;;;;;1.30;1.20;;;10.10;99.90;;;;;;5032390;28;20176;-76
2021/09/22 05:19:12;;;;;;;0.70;0.60;;;10.20;99.90;;;;;;5022742;28;20924;-76
2021/09/22 05:21:37;;;;;;;1.40;1.27;;;10.10;99.90;;;;;;5014814;28;20542;-75
2021/09/22 05:24:03;;;;;;;0.80;0.70;;;10.10;99.90;;;;;;5014891;28;20196;-75
2021/09/22 05:26:29;;;;;;;0.70;0.60;;;10.20;99.90;;;;;;5015700;28;20554;-76
2021/09/22 05:28:54;;;;;;;3.70;3.13;;;10.20;99.90;;;;;;5017310;28;20920;-76
2021/09/22 05:31:20;;;;;;;2.30;1.00;;;10.20;99.90;;;;;;5032001;28;20677;-76
2021/09/22 05:33:46;;;;;;;1.00;1.00;;;10.20;99.90;;;;;;5025331;28;20176;-76
2021/09/22 05:36:11;;;;;;;1.80;1.70;;;10.20;99.90;;;;;;5025123;28;20552;-75
2021/09/22 05:38:37;;;;;;;1.10;0.77;;;10.20;99.90;;;;;;5016655;28;20262;-75
2021/09/22 05:41:02;;;;;;;0.80;0.70;;;10.20;99.90;;;;;;5015892;28;20299;-76
2021/09/22 05:43:28;;;;;;;0.70;0.50;;;10.20;99.90;;;;;;5022906;28;20200;-75
2021/09/22 05:45:53;;;;;;;1.57;1.47;;;10.30;99.90;;;;;;5014173;28;20210;-75
2021/09/22 05:48:19;;;;;;;0.70;0.50;;;10.20;99.90;;;;;;5016610;28;20182;-75
2021/09/22 05:50:45;;;;;;;1.60;1.50;;;10.20;99.90;;;;;;5027236;28;20192;-76
2021/09/22 05:53:10;;;;;;;0.87;0.70;;;10.20;99.90;;;;;;5029431;28;20202;-76
2021/09/22 05:55:36;;;;;;;0.90;0.60;;;10.20;99.90;;;;;;5033759;28;20194;-76
2021/09/22 05:58:02;;;;;;;0.70;0.57;;;10.30;99.90;;;;;;5033241;28;20197;-77
2021/09/22 06:00:27;;;;;;;0.80;0.70;;;10.30;99.90;;;;;;5035520;28;20172;-76
2021/09/22 06:02:53;;;;;;;0.70;0.50;;;10.40;99.90;;;;;;5027457;28;20180;-76
2021/09/22 06:05:18;;;;;;;1.00;0.90;;;10.40;99.90;;;;;;5030806;28;20528;-77
2021/09/22 06:07:44;;;;;;;0.70;0.50;;;10.50;99.90;;;;;;5035887;28;20684;-77
2021/09/22 06:10:10;;;;;;;1.40;1.30;;;10.50;99.90;;;;;;5033446;28;20260;-76
2021/09/22 06:12:35;;;;;;;1.00;0.70;;;10.60;99.90;;;;;;5020225;28;20196;-76
2021/09/22 06:15:01;;;;;;;0.70;0.50;;;10.60;99.90;;;;;;5014460;28;20962;-76
2021/09/22 06:17:27;;;;;;;1.57;1.47;;;10.70;99.90;;;;;;5016373;28;20216;-76
2021/09/22 06:19:52;;;;;;;1.83;1.73;;;10.70;99.90;;;;;;5015760;28;20624;-77
2021/09/22 06:22:24;;;;;;;0.80;0.70;;;10.80;99.90;;;;;;5015249;28;20208;-76
2021/09/22 06:24:50;;;;;;;0.80;0.70;;;10.80;99.90;;;;;;5016310;28;20206;-76
2021/09/22 06:27:15;;;;;;;1.30;1.00;;;10.90;99.90;;;;;;5034380;28;20425;-76
2021/09/22 06:29:41;;;;;;;1.20;1.10;;;11.00;99.90;;;;;;5033884;28;20791;-76
2021/09/22 06:32:07;;;;;;;2.10;1.90;;;11.10;99.90;;;;;;5033235;28;20188;-76
2021/09/22 06:34:33;;;;;;;0.70;0.50;;;11.10;99.90;;;;;;5020517;28;20215;-76
2021/09/22 06:36:58;;;;;;;0.83;0.80;;;11.20;99.90;;;;;;5033315;28;20419;-77
2021/09/22 06:39:24;;;;;;;1.97;1.77;;;11.20;99.90;;;;;;5033946;28;20184;-76
2021/09/22 06:41:49;;;;;;;1.33;1.23;;;11.40;99.90;;;;;;5036066;28;20221;-76
2021/09/22 06:44:15;;;;;;;4.07;1.30;;;11.40;99.90;;;;;;5030491;28;20280;-76
2021/09/22 06:46:40;;;;;;;0.90;0.90;;;11.50;99.90;;;;;;5017054;28;20176;-77
2021/09/22 06:49:06;;;;;;;1.80;0.90;;;11.60;99.90;;;;;;5017015;28;20172;-76
2021/09/22 06:51:31;;;;;;;1.10;0.90;;;11.70;99.90;;;;;;5020434;28;20198;-76
2021/09/22 06:53:57;;;;;;;0.70;0.60;;;11.80;99.90;;;;;;5029142;28;20187;-76
2021/09/22 06:56:24;;;;;;;1.00;0.90;;;11.90;99.90;;;;;;5050844;28;20206;-77
2021/09/22 06:58:50;;;;;;;1.27;0.90;;;12.00;99.90;;;;;;5035710;28;20194;-76
2021/09/22 07:01:15;;;;;;;7.43;1.20;;;12.10;99.90;;;;;;5032511;28;20442;-76
2021/09/22 07:03:41;;;;;;;1.23;1.13;;;12.10;99.90;;;;;;5035399;28;20195;-77
2021/09/22 07:06:09;;;;;;;0.70;0.50;;;12.10;99.90;;;;;;5035502;28;20179;-77
2021/09/22 07:08:34;;;;;;;0.80;0.80;;;12.20;99.90;;;;;;5028615;28;20167;-76
2021/09/22 07:11:00;;;;;;;4.40;1.20;;;12.30;99.90;;;;;;5028985;28;20449;-77
2021/09/22 07:13:26;;;;;;;1.30;1.20;;;12.40;99.90;;;;;;5030697;28;20175;-77
2021/09/22 07:15:51;;;;;;;0.70;0.60;;;12.50;99.90;;;;;;5015849;28;20560;-76
2021/09/22 07:18:18;;;;;;;1.63;0.73;;;12.70;99.90;;;;;;5016790;28;20275;-76
2021/09/22 07:20:44;;;;;;;2.43;1.17;;;12.70;99.90;;;;;;5017131;28;20211;-77
2021/09/22 07:23:10;;;;;;;2.13;1.37;;;12.80;99.90;;;;;;5035427;28;20481;-76
2021/09/22 07:25:36;;;;;;;1.17;1.07;;;12.90;99.90;;;;;;5049988;28;20426;-77
2021/09/22 07:28:01;;;;;;;3.60;1.73;;;13.00;99.90;;;;;;5034531;28;20524;-77
2021/09/22 07:30:27;;;;;;;2.80;2.60;;;13.10;99.90;;;;;;5029864;28;20245;-77
2021/09/22 07:32:54;;;;;;;0.93;0.90;;;13.20;99.90;;;;;;5019755;28;20176;-77
2021/09/22 07:35:20;;;;;;;1.10;1.00;;;13.30;99.90;;;;;;5022645;28;20164;-77
2021/09/22 07:37:46;;;;;;;0.80;0.70;;;13.40;99.90;;;;;;5036247;28;20415;-77
2021/09/22 07:40:13;;;;;;;0.90;0.80;;;13.50;99.90;;;;;;5033730;28;20641;-77
2021/09/22 07:42:38;;;;;;;1.17;1.07;;;13.60;99.90;;;;;;5022461;28;20961;-75
2021/09/22 07:45:05;;;;;;;2.50;1.83;;;13.80;99.90;;;;;;5027126;28;20427;-75
2021/09/22 07:47:31;;;;;;;1.93;1.60;;;13.90;99.90;;;;;;5023398;28;20704;-75
2021/09/22 07:49:56;;;;;;;2.00;1.50;;;14.10;99.90;;;;;;5022900;28;20441;-75
2021/09/22 07:52:22;;;;;;;1.10;1.00;;;14.30;99.90;;;;;;5031965;28;20505;-75
2021/09/22 07:54:47;;;;;;;0.77;0.63;;;14.50;99.90;;;;;;5031839;28;20167;-75
2021/09/22 07:57:13;;;;;;;1.27;1.17;;;14.70;99.90;;;;;;5031765;28;20195;-75
2021/09/22 07:59:39;;;;;;;2.00;1.90;;;14.90;99.90;;;;;;5028185;28;20561;-75
2021/09/22 08:02:05;;;;;;;1.43;1.33;;;15.10;99.90;;;;;;5020270;28;20450;-77
2021/09/22 08:04:31;;;;;;;2.70;1.00;;;15.40;99.90;;;;;;5022954;28;20204;-76
2021/09/22 08:06:59;;;;;;;2.77;2.57;;;15.70;99.90;;;;;;5019412;28;20422;-76
2021/09/22 08:09:26;;;;;;;4.80;2.73;;;16.00;99.90;;;;;;5032052;28;20168;-77
2021/09/22 08:11:52;;;;;;;0.97;0.87;;;16.30;99.90;;;;;;5031704;28;20430;-76
2021/09/22 08:14:17;;;;;;;2.87;2.50;;;16.60;99.90;;;;;;5025907;28;20435;-77
2021/09/22 08:16:45;;;;;;;1.10;1.00;;;16.90;99.90;;;;;;5022432;28;20505;-77
2021/09/22 08:19:11;;;;;;;3.60;2.10;;;17.40;99.90;;;;;;5019134;28;20233;-76
2021/09/22 08:21:37;;;;;;;3.37;2.00;;;17.80;99.90;;;;;;5029737;28;20525;-77
2021/09/22 08:24:03;;;;;;;1.27;1.10;;;18.40;99.90;;;;;;5031946;28;20552;-77
2021/09/22 08:26:28;;;;;;;1.13;0.93;;;18.90;99.90;;;;;;5029962;28;20184;-77
2021/09/22 08:28:54;;;;;;;2.70;1.83;;;19.10;99.90;;;;;;5015429;28;20266;-76
2021/09/22 08:31:20;;;;;;;3.23;3.00;;;19.40;99.90;;;;;;5030268;28;20199;-77
2021/09/22 08:33:46;;;;;;;2.47;2.37;;;19.70;99.90;;;;;;5016012;28;20177;-77
2021/09/22 08:36:12;;;;;;;1.80;1.70;;;19.90;99.90;;;;;;5016880;28;20195;-76
2021/09/22 08:38:37;;;;;;;2.83;1.97;;;20.00;99.90;;;;;;5017119;28;20184;-77
2021/09/22 08:41:04;;;;;;;5.17;3.10;;;20.00;99.90;;;;;;5018813;28;20446;-77
2021/09/22 08:43:30;;;;;;;5.53;1.70;;;20.20;99.90;;;;;;5033190;28;20692;-77
2021/09/22 08:45:56;;;;;;;1.00;0.90;;;20.30;99.90;;;;;;5035586;28;20402;-77
2021/09/22 08:48:24;;;;;;;6.37;2.87;;;20.50;99.90;;;;;;5033309;28;20452;-77
2021/09/22 08:50:50;;;;;;;4.20;2.27;;;20.30;99.90;;;;;;5034549;28;20415;-77
2021/09/22 08:53:16;;;;;;;3.67;3.37;;;20.40;99.90;;;;;;5016854;28;20565;-77
2021/09/22 08:55:41;;;;;;;3.00;1.97;;;20.20;99.90;;;;;;5026913;28;20501;-78
2021/09/22 08:58:07;;;;;;;3.33;1.73;;;20.50;99.90;;;;;;5028604;28;20560;-78
2021/09/22 09:00:33;;;;;;;2.90;1.87;;;20.70;99.90;;;;;;5024595;28;20183;-78
2021/09/22 09:02:58;;;;;;;1.80;1.70;;;21.10;99.90;;;;;;5023693;28;20203;-78
2021/09/22 09:05:24;;;;;;;8.70;2.00;;;21.30;99.90;;;;;;5018290;28;20446;-77
2021/09/22 09:07:55;;;;;;;12.73;2.50;;;21.50;99.90;;;;;;5035587;28;20180;-77
2021/09/22 09:10:29;;;;;;;2.37;1.97;;;21.80;99.90;;;;;;5017101;28;20176;-77
2021/09/22 09:13:05;;;;;;;5.40;2.70;;;21.90;99.90;;;;;;5016897;28;20414;-77
2021/09/22 09:15:36;;;;;;;4.47;1.90;;;22.00;99.90;;;;;;5016565;28;20399;-78
2021/09/22 09:18:19;;;;;;;3.47;3.27;;;22.10;99.90;;;;;;5034089;28;20418;-78
2021/09/22 09:20:50;;;;;;;1.70;1.60;;;22.30;99.90;;;;;;5020551;28;20438;-78
2021/09/22 09:23:19;;;;;;;1.47;1.37;;;22.40;99.90;;;;;;5018944;28;20462;-78
2021/09/22 09:25:53;;;;;;;2.63;2.03;;;22.50;99.90;;;;;;5035370;28;20422;-78
2021/09/22 09:28:33;;;;;;;1.93;1.83;;;22.70;99.90;;;;;;5037155;28;20444;-79
2021/09/22 09:31:00;;;;;;;1.97;1.80;;;23.10;99.90;;;;;;5036815;28;20433;-79
2021/09/22 09:33:34;;;;;;;2.23;2.13;;;23.50;99.90;;;;;;5032425;28;20517;-78
2021/09/22 09:36:31;;;;;;;1.23;1.13;;;24.00;99.90;;;;;;5017547;28;20939;-78
2021/09/22 09:39:11;;;;;;;1.70;1.57;;;24.30;99.90;;;;;;5017800;28;20411;-79
2021/09/22 09:41:49;;;;;;;2.57;2.37;;;24.60;99.90;;;;;;5029026;28;20446;-79
2021/09/22 09:44:21;;;;;;;2.43;2.23;;;25.00;99.90;;;;;;5032893;28;20468;-79
2021/09/22 09:46:47;;;;;;;2.47;2.27;;;25.50;99.90;;;;;;5022237;28;20419;-79
2021/09/22 09:49:16;;;;;;;6.87;1.80;;;25.60;97.90;;;;;;5035233;28;20413;-79
2021/09/22 09:51:43;;;;;;;2.13;1.57;;;25.80;98.70;;;;;;5055644;28;20426;-79
2021/09/22 09:54:23;;;;;;;3.90;2.57;;;26.00;96.80;;;;;;5032977;28;20512;-79
2021/09/22 09:56:53;;;;;;;0.90;0.80;;;26.30;95.20;;;;;;5034880;28;20429;-79
2021/09/22 09:59:21;;;;;;;1.50;1.40;;;26.90;95.80;;;;;;5028582;28;20476;-78
2021/09/22 10:01:52;;;;;;;8.70;3.17;;;27.10;90.60;;;;;;5015601;28;20423;-78
2021/09/22 10:04:23;;;;;;;2.77;2.50;;;27.40;89.80;;;;;;5027889;28;20489;-79
2021/09/22 10:06:49;;;;;;;2.40;2.20;;;27.60;89.70;;;;;;5034004;28;20418;-79
2021/09/22 10:09:16;;;;;;;1.87;1.77;;;28.00;86.20;;;;;;5035450;28;20442;-79
2021/09/22 10:11:45;;;;;;;3.80;3.03;;;28.30;79.60;;;;;;5035967;28;20494;-79
2021/09/22 10:14:16;;;;;;;4.93;2.37;;;28.20;75.80;;;;;;5020882;28;20419;-79
2021/09/22 10:16:42;;;;;;;2.70;1.57;;;28.80;75.40;;;;;;5035260;28;20486;-78
2021/09/22 10:19:09;;;;;;;1.87;1.67;;;29.00;75.10;;;;;;5041160;28;20501;-79
2021/09/22 10:21:37;;;;;;;2.10;1.90;;;28.90;69.70;;;;;;5037193;28;20489;-78
2021/09/22 10:24:07;;;;;;;2.80;1.53;;;29.20;73.00;;;;;;5038999;28;20458;-79
2021/09/22 10:26:33;;;;;;;4.03;2.27;;;29.30;69.80;;;;;;5038447;28;20398;-78
2021/09/22 10:29:01;;;;;;;2.67;2.20;;;29.40;68.30;;;;;;5023097;28;20845;-79
2021/09/22 10:31:29;;;;;;;3.37;1.90;;;29.30;64.60;;;;;;5023477;28;20213;-79
2021/09/22 10:33:57;;;;;;;2.17;2.00;;;29.90;65.60;;;;;;5029785;28;20459;-79
2021/09/22 10:36:42;;;;;;;2.57;1.40;;;30.20;62.20;;;;;;5021496;28;20422;-79
2021/09/22 10:39:11;;;;;;;2.30;2.00;;;30.10;63.40;;;;;;5033805;28;20430;-79
2021/09/22 10:41:44;;;;;;;2.83;2.63;;;29.90;62.60;;;;;;5022794;28;20444;-78
2021/09/22 10:44:12;;;;;;;1.70;1.60;;;30.10;61.90;;;;;;5017380;28;20463;-78
2021/09/22 10:46:37;;;;;;;2.50;1.33;;;30.10;65.00;;;;;;5015849;28;20418;-78
2021/09/22 10:49:09;;;;;;;1.80;1.70;;;30.50;59.60;;;;;;5016800;28;20420;-80
2021/09/22 10:51:41;;;;;;;4.97;2.47;;;30.70;60.40;;;;;;5015800;28;20184;-79
2021/09/22 10:54:11;;;;;;;2.97;2.03;;;31.30;58.40;;;;;;5023845;28;20426;-80
2021/09/22 10:56:47;;;;;;;1.70;1.60;;;31.80;59.10;;;;;;5034145;28;20414;-79
2021/09/22 10:59:26;;;;;;;6.60;2.40;;;31.70;56.40;;;;;;5021199;28;20801;-80
2021/09/22 11:01:52;;;;;;;1.77;1.40;;;31.80;57.70;;;;;;5016268;28;21081;-79
2021/09/22 11:04:20;;;;;;;1.80;1.70;;;32.10;56.00;;;;;;5016933;28;20485;-79
2021/09/22 11:06:48;;;;;;;2.77;2.57;;;32.20;54.20;;;;;;5017595;28;20250;-79
2021/09/22 11:09:17;;;;;;;2.30;1.87;;;32.50;55.50;;;;;;5028308;28;20419;-79
2021/09/22 11:12:01;;;;;;;1.90;1.80;;;32.40;52.50;;;;;;5024847;28;20442;-78
2021/09/22 11:14:31;;;;;;;3.33;3.03;;;32.10;53.30;;;;;;5029925;28;20441;-79
2021/09/22 11:16:57;;;;;;;3.53;2.67;;;32.50;55.00;;;;;;5017281;28;20403;-79
2021/09/22 11:19:22;;;;;;;2.33;2.13;;;32.50;53.30;;;;;;5018131;28;20415;-78
2021/09/22 11:21:48;;;;;;;4.40;2.90;;;32.60;54.10;;;;;;5016547;28;20238;-79
2021/09/22 11:24:15;;;;;;;3.07;2.77;;;32.30;52.90;;;;;;5027827;28;20210;-80
2021/09/22 11:26:51;;;;;;;3.17;2.63;;;32.20;53.30;;;;;;5034575;28;20422;-79
2021/09/22 11:29:39;;;;;;;2.33;2.13;;;32.00;53.40;;;;;;5033139;28;20841;-79
2021/09/22 11:32:27;;;;;;;3.57;2.57;;;31.90;53.50;;;;;;5031550;28;20873;-79
2021/09/22 11:34:55;;;;;;;3.40;2.63;;;31.80;52.10;;;;;;5031641;28;20531;-79
2021/09/22 11:37:21;;;;;;;5.33;2.10;;;31.80;52.10;;;;;;5031855;28;20963;-79
2021/09/22 11:39:46;;;;;;;1.60;1.50;;;31.70;53.10;;;;;;5029293;28;20553;-78
2021/09/22 11:42:15;;;;;;;2.17;1.97;;;31.50;53.30;;;;;;5020050;28;20192;-79
2021/09/22 11:44:41;;;;;;;3.10;2.83;;;31.50;55.00;;;;;;5016626;28;20216;-79
2021/09/22 11:47:09;;;;;;;1.50;1.40;;;31.70;55.50;;;;;;5016398;28;20447;-79
2021/09/22 11:49:40;;;;;;;2.70;2.07;;;31.90;54.00;;;;;;5034413;28;20575;-79
2021/09/22 11:52:09;;;;;;;2.13;1.93;;;32.10;55.30;;;;;;5033964;28;20434;-80
2021/09/22 11:54:35;;;;;;;3.63;2.33;;;32.30;53.90;;;;;;5018887;28;20422;-79
2021/09/22 11:57:05;;;;;;;2.90;1.57;;;32.20;52.50;;;;;;5015751;28;20434;-78
2021/09/22 11:59:35;;;;;;;2.60;1.80;;;32.30;53.50;;;;;;5013679;28;20168;-79
2021/09/22 12:02:01;;;;;;;2.60;2.40;;;32.10;54.00;;;;;;5019528;28;20446;-79
2021/09/22 12:04:39;;;;;;;3.63;2.00;;;32.00;52.80;;;;;;5023227;28;20463;-80
2021/09/22 12:07:07;;;;;;;1.97;1.87;;;32.10;52.60;;;;;;5012132;28;20509;-79
2021/09/22 12:09:51;;;;;;;8.20;3.17;;;31.90;53.00;;;;;;5012618;28;20419;-79
2021/09/22 12:12:18;;;;;;;1.93;1.73;;;32.10;52.60;;;;;;5019803;28;20438;-79
2021/09/22 12:14:52;;;;;;;2.60;2.40;;;32.30;52.80;;;;;;5014254;28;20506;-80
2021/09/22 12:17:22;;;;;;;2.17;2.00;;;32.50;52.80;;;;;;5019214;28;20448;-79
2021/09/22 12:19:49;;;;;;;5.10;1.93;;;32.30;52.50;;;;;;5032259;28;20516;-78
2021/09/22 12:22:24;;;;;;;2.93;2.00;;;31.70;51.60;;;;;;5031277;28;20813;-79
2021/09/22 12:24:50;;;;;;;3.07;2.03;;;31.10;52.50;;;;;;5029617;28;20503;-79
2021/09/22 12:27:21;;;;;;;4.00;3.13;;;31.10;52.70;;;;;;5011649;28;20419;-79
2021/09/22 12:29:52;;;;;;;2.70;2.13;;;30.60;52.00;;;;;;5024935;28;20483;-78
2021/09/22 12:32:18;;;;;;;1.67;1.30;;;30.80;53.70;;;;;;5017695;28;20466;-79
2021/09/22 12:34:43;;;;;;;2.60;2.00;;;31.00;53.90;;;;;;5011687;28;20415;-79
2021/09/22 12:37:21;;;;;;;1.97;1.73;;;31.00;54.00;;;;;;5014028;28;20280;-78
2021/09/22 12:39:52;;;;;;;3.43;3.13;;;31.50;54.30;;;;;;5026347;28;20168;-78
2021/09/22 12:42:18;;;;;;;2.40;2.20;;;31.70;52.80;;;;;;5028767;28;20816;-79
2021/09/22 12:44:51;;;;;;;1.80;1.63;;;31.70;52.90;;;;;;5027175;28;20460;-80
2021/09/22 12:47:17;;;;;;;2.87;1.97;;;31.80;53.50;;;;;;5026296;28;20422;-80